Time;durP1;ratioP1;P1;durP2;ratioP2;P2;SDS_P1;SDS_P2;PMS_P1;PMS_P2;Temp;Humidity;BMP_temperature;BMP_pressure;BME280_temperature;BME280_humidity;BME280_pressure;Samples;Min_cycle;Max_cycle;Signal;HPM_P1;HPM_P2
2023/03/24 00:00:23;;;;;;;8.00;4.93;;;;;;;10.24;100.00;93235.25;5063382;28;20085;-64
2023/03/24 00:02:50;;;;;;;8.65;5.10;;;;;;;10.25;100.00;93226.63;5058520;28;20485;-64
2023/03/24 00:05:20;;;;;;;10.07;5.28;;;;;;;10.23;100.00;93209.81;5061274;28;20976;-65
2023/03/24 00:07:48;;;;;;;8.00;4.60;;;;;;;10.20;100.00;93211.47;5061885;28;20047;-64
2023/03/24 00:10:21;;;;;;;7.72;4.95;;;;;;;10.26;100.00;93216.41;5063278;28;20044;-64
2023/03/24 00:12:49;;;;;;;8.98;4.90;;;;;;;10.26;100.00;93214.47;5068969;28;20097;-64
2023/03/24 00:15:19;;;;;;;7.75;5.00;;;;;;;10.18;100.00;93207.59;5071359;28;20105;-64
2023/03/24 00:17:49;;;;;;;8.75;4.85;;;;;;;10.17;100.00;93200.59;5058290;28;20036;-63
2023/03/24 00:20:19;;;;;;;7.53;4.60;;;;;;;10.17;100.00;93206.06;5071836;28;20040;-64
2023/03/24 00:22:49;;;;;;;7.55;4.97;;;;;;;10.12;100.00;93204.63;5072271;28;20038;-63
2023/03/24 00:25:19;;;;;;;7.25;4.72;;;;;;;10.08;100.00;93190.22;5071994;28;20040;-63
2023/03/24 00:27:47;;;;;;;6.70;4.85;;;;;;;10.12;100.00;93184.63;5058814;28;20376;-63
2023/03/24 00:30:16;;;;;;;6.95;4.82;;;;;;;10.20;100.00;93183.25;5062135;28;20047;-63
2023/03/24 00:32:45;;;;;;;8.10;4.73;;;;;;;10.22;100.00;93189.06;5050465;28;20094;-65
2023/03/24 00:35:15;;;;;;;7.32;4.63;;;;;;;10.17;100.00;93187.63;5062081;28;20044;-64
2023/03/24 00:37:43;;;;;;;10.32;4.95;;;;;;;9.97;100.00;93176.78;5058282;28;20052;-63
2023/03/24 00:40:16;;;;;;;6.72;4.50;;;;;;;10.00;100.00;93178.66;5081611;28;20040;-63
2023/03/24 00:42:45;;;;;;;9.85;5.22;;;;;;;9.99;100.00;93173.59;5068954;28;20371;-64
2023/03/24 00:45:18;;;;;;;10.20;5.10;;;;;;;9.94;100.00;93172.16;5057362;28;20048;-65
2023/03/24 00:47:48;;;;;;;9.27;5.40;;;;;;;9.98;100.00;93163.88;5067545;28;20032;-64
2023/03/24 00:50:19;;;;;;;10.43;5.10;;;;;;;9.87;100.00;93163.34;5075493;28;20067;-63
2023/03/24 00:52:47;;;;;;;10.10;5.63;;;;;;;9.82;100.00;93163.84;5074222;28;20033;-63
2023/03/24 00:55:15;;;;;;;8.48;5.32;;;;;;;9.83;100.00;93157.94;5070954;28;20048;-64
2023/03/24 00:57:51;;;;;;;8.77;5.00;;;;;;;9.80;100.00;93153.34;5061923;28;20064;-64
2023/03/24 01:00:22;;;;;;;9.43;5.20;;;;;;;9.86;100.00;93142.59;5067147;28;20049;-63
2023/03/24 01:02:54;;;;;;;8.95;5.30;;;;;;;9.83;100.00;93141.50;5071735;28;20037;-64
2023/03/24 01:05:27;;;;;;;8.55;5.00;;;;;;;9.79;100.00;93135.34;5057487;28;20040;-64
2023/03/24 01:08:02;;;;;;;8.45;5.50;;;;;;;9.84;100.00;93139.53;5059555;28;20033;-64
2023/03/24 01:10:41;;;;;;;8.40;4.80;;;;;;;9.86;100.00;93137.13;5069871;28;22494;-65
2023/03/24 01:13:09;;;;;;;9.73;6.78;;;;;;;9.76;100.00;93131.50;5059071;28;20040;-64
2023/03/24 01:15:36;;;;;;;12.25;7.80;;;;;;;9.86;100.00;93134.38;5057771;28;20044;-66
2023/03/24 01:18:02;;;;;;;8.48;4.95;;;;;;;9.82;100.00;93126.28;5061036;28;20037;-64
2023/03/24 01:20:34;;;;;;;7.55;5.20;;;;;;;9.76;100.00;93136.97;5066235;28;20039;-63
2023/03/24 01:23:03;;;;;;;7.30;4.73;;;;;;;9.69;100.00;93128.94;5070950;28;20085;-64
2023/03/24 01:25:31;;;;;;;9.13;5.10;;;;;;;9.64;100.00;93140.41;5071025;28;20036;-64
2023/03/24 01:27:58;;;;;;;9.25;5.50;;;;;;;9.69;100.00;93136.38;5051730;28;20045;-61
2023/03/24 01:30:27;;;;;;;8.30;5.40;;;;;;;9.65;100.00;93132.97;5062178;28;20070;-65
2023/03/24 01:32:55;;;;;;;10.27;5.40;;;;;;;9.65;100.00;93135.69;5071122;28;20043;-65
2023/03/24 01:35:24;;;;;;;8.23;5.47;;;;;;;9.62;100.00;93133.81;5070542;28;20491;-63
2023/03/24 01:37:55;;;;;;;8.10;5.25;;;;;;;9.68;100.00;93132.88;5058306;28;20402;-63
2023/03/24 01:40:25;;;;;;;8.40;5.43;;;;;;;9.65;100.00;93133.72;5078879;28;20051;-65
2023/03/24 01:42:52;;;;;;;8.50;5.25;;;;;;;9.65;100.00;93130.97;5066935;28;20029;-66
2023/03/24 01:45:40;;;;;;;9.82;5.45;;;;;;;9.70;100.00;93124.22;5060082;28;20515;-64
2023/03/24 01:48:21;;;;;;;9.47;5.90;;;;;;;9.68;100.00;93124.66;5068917;28;20067;-64
2023/03/24 01:50:54;;;;;;;11.20;5.68;;;;;;;9.76;100.00;93136.22;5078410;28;20042;-63
2023/03/24 01:53:22;;;;;;;9.27;5.60;;;;;;;9.74;100.00;93124.91;5070318;28;20036;-65
2023/03/24 01:55:50;;;;;;;9.57;5.60;;;;;;;9.72;100.00;93119.88;5070688;28;20530;-64
2023/03/24 01:58:18;;;;;;;9.50;5.80;;;;;;;9.71;100.00;93120.28;5055916;28;20505;-64
2023/03/24 02:00:44;;;;;;;9.20;5.07;;;;;;;9.74;100.00;93113.97;5069957;28;20374;-65
2023/03/24 02:03:18;;;;;;;9.57;5.40;;;;;;;9.75;100.00;93115.47;5070264;28;20047;-64
2023/03/24 02:05:48;;;;;;;7.78;5.45;;;;;;;9.74;100.00;93111.22;5057000;28;20432;-65
2023/03/24 02:08:27;;;;;;;9.77;5.70;;;;;;;9.71;100.00;93117.53;5059566;28;20097;-65
2023/03/24 02:10:55;;;;;;;7.90;5.03;;;;;;;9.75;100.00;93119.00;5065090;28;20071;-63
2023/03/24 02:13:22;;;;;;;9.17;5.33;;;;;;;9.76;100.00;93119.78;5050102;28;20097;-64
2023/03/24 02:16:11;;;;;;;8.60;5.40;;;;;;;9.77;100.00;93121.31;5055016;28;20432;-64
2023/03/24 02:19:15;;;;;;;7.85;5.20;;;;;;;9.75;100.00;93123.69;5054291;28;21724;-64
2023/03/24 02:21:42;;;;;;;8.32;5.13;;;;;;;9.71;100.00;93118.31;5058827;28;20450;-63
2023/03/24 02:24:35;;;;;;;8.55;5.40;;;;;;;9.73;100.00;93120.63;5067261;28;20117;-65
2023/03/24 02:27:21;;;;;;;9.77;5.60;;;;;;;9.80;100.00;93117.72;5028294;28;20049;-65
2023/03/24 02:30:14;;;;;;;7.90;4.97;;;;;;;9.83;100.00;93116.06;5058841;28;20043;-64
2023/03/24 02:32:49;;;;;;;10.52;5.10;;;;;;;9.89;100.00;93098.69;5055345;28;20054;-64
2023/03/24 02:35:38;;;;;;;9.32;5.15;;;;;;;9.90;100.00;93100.22;5069093;28;20033;-63
2023/03/24 02:38:26;;;;;;;7.07;4.53;;;;;;;9.91;100.00;93099.00;5060496;28;20124;-64
2023/03/24 02:41:18;;;;;;;7.77;4.60;;;;;;;9.95;100.00;93091.47;5072501;28;20036;-63
2023/03/24 02:44:09;;;;;;;8.48;4.55;;;;;;;9.94;100.00;93081.72;5068772;28;20180;-63
2023/03/24 02:47:02;;;;;;;7.65;4.57;;;;;;;9.97;100.00;93080.84;5057892;28;20040;-63
2023/03/24 02:49:40;;;;;;;7.70;4.47;;;;;;;9.98;100.00;93076.16;5049339;28;21526;-64
2023/03/24 02:52:13;;;;;;;7.80;4.72;;;;;;;9.99;100.00;93078.44;5076652;28;20036;-63
2023/03/24 02:55:04;;;;;;;8.77;4.80;;;;;;;9.95;100.00;93090.69;5069542;28;20043;-63
2023/03/24 02:57:41;;;;;;;8.02;4.70;;;;;;;9.95;100.00;93090.69;5058817;28;20863;-63
2023/03/24 03:00:18;;;;;;;8.23;4.90;;;;;;;9.96;100.00;93089.50;5053774;28;20133;-63
2023/03/24 03:03:15;;;;;;;7.07;4.50;;;;;;;10.00;100.00;93090.19;5069504;28;20037;-63
2023/03/24 03:05:48;;;;;;;6.78;4.53;;;;;;;10.05;100.00;93094.38;5058010;28;21811;-63
2023/03/24 03:08:19;;;;;;;6.93;4.10;;;;;;;10.09;100.00;93095.03;5064111;28;20044;-63
2023/03/24 03:10:49;;;;;;;7.25;4.07;;;;;;;10.25;100.00;93086.75;5060039;28;20047;-63
2023/03/24 03:13:28;;;;;;;7.97;4.63;;;;;;;10.36;100.00;93084.53;5050403;28;20474;-64
2023/03/24 03:15:59;;;;;;;6.72;4.15;;;;;;;10.48;100.00;93072.03;5057792;28;20119;-63
2023/03/24 03:18:32;;;;;;;7.35;4.05;;;;;;;10.58;100.00;93071.00;5061444;28;20842;-63
2023/03/24 03:21:09;;;;;;;5.37;3.47;;;;;;;10.78;100.00;93072.75;5058609;28;20109;-61
2023/03/24 03:23:40;;;;;;;5.45;3.45;;;;;;;10.82;100.00;93056.19;5069375;28;20101;-63
2023/03/24 03:26:15;;;;;;;5.25;3.47;;;;;;;10.92;100.00;93055.09;5068662;28;20104;-64
2023/03/24 03:28:48;;;;;;;5.35;3.58;;;;;;;10.97;100.00;93043.56;5056301;28;20032;-64
2023/03/24 03:31:33;;;;;;;6.78;3.40;;;;;;;10.95;100.00;93046.00;5068531;28;20336;-65
2023/03/24 03:34:07;;;;;;;5.10;3.07;;;;;;;10.97;100.00;93036.09;5055532;28;20041;-63
2023/03/24 03:36:46;;;;;;;4.90;2.90;;;;;;;10.94;100.00;93034.22;5069147;28;20054;-63
2023/03/24 03:39:24;;;;;;;5.30;3.50;;;;;;;10.89;100.00;93031.28;5080526;28;20464;-63
2023/03/24 03:41:51;;;;;;;6.18;3.20;;;;;;;10.85;100.00;93025.13;5069200;28;20422;-63
2023/03/24 03:44:18;;;;;;;5.32;3.20;;;;;;;10.82;100.00;93026.00;5067027;28;20045;-63
2023/03/24 03:46:44;;;;;;;5.17;3.23;;;;;;;10.79;100.00;93030.41;5047693;28;20056;-63
2023/03/24 03:49:11;;;;;;;5.55;3.17;;;;;;;10.78;100.00;93018.66;5065931;28;20047;-63
2023/03/24 03:51:38;;;;;;;5.38;3.47;;;;;;;10.78;100.00;93015.91;5081471;28;20049;-65
2023/03/24 03:54:10;;;;;;;4.85;2.88;;;;;;;10.75;100.00;93014.03;5072378;28;20040;-63
2023/03/24 03:56:37;;;;;;;5.03;3.40;;;;;;;10.75;100.00;93022.25;5070430;28;20037;-64
2023/03/24 03:59:05;;;;;;;6.47;2.90;;;;;;;10.71;100.00;93016.13;5072588;28;20388;-64
2023/03/24 04:01:36;;;;;;;6.57;3.60;;;;;;;10.70;100.00;93009.06;5056580;28;20063;-64
2023/03/24 04:04:06;;;;;;;6.85;3.42;;;;;;;10.70;100.00;93013.81;5062761;28;20089;-64
2023/03/24 04:06:43;;;;;;;5.28;2.78;;;;;;;10.63;100.00;93008.53;5069928;28;20090;-63
2023/03/24 04:10:18;;;;;;;5.18;3.33;;;;;;;10.66;100.00;93010.41;5063150;28;20040;-63
2023/03/24 04:12:50;;;;;;;5.60;2.93;;;;;;;10.66;100.00;93022.13;4997061;28;20069;-66
2023/03/24 04:15:28;;;;;;;7.00;3.30;;;;;;;10.69;100.00;93031.50;4996578;28;20091;-63
2023/03/24 04:18:30;;;;;;;4.88;3.13;;;;;;;10.68;100.00;93036.19;5032016;28;20037;-64
2023/03/24 04:21:16;;;;;;;5.72;3.53;;;;;;;10.67;100.00;93039.38;5060566;28;20093;-62
2023/03/24 04:24:02;;;;;;;5.65;3.30;;;;;;;10.58;100.00;93048.25;5071261;28;20117;-64
2023/03/24 04:26:42;;;;;;;4.83;3.13;;;;;;;10.59;100.00;93052.53;5071558;28;20701;-62
2023/03/24 04:29:45;;;;;;;7.00;3.30;;;;;;;10.56;100.00;93054.19;5071773;28;20054;-63
2023/03/24 04:32:20;;;;;;;5.70;3.45;;;;;;;10.53;100.00;93054.28;5037286;28;20037;-63
2023/03/24 04:34:54;;;;;;;5.25;3.10;;;;;;;10.53;100.00;93054.28;5043210;28;20045;-65
2023/03/24 04:37:25;;;;;;;5.53;3.40;;;;;;;10.49;100.00;93054.38;5044706;28;20037;-63
2023/03/24 04:39:57;;;;;;;6.00;3.17;;;;;;;10.57;100.00;93060.44;5050875;28;20511;-63
2023/03/24 04:42:37;;;;;;;6.93;4.30;;;;;;;10.59;100.00;93063.53;5050913;28;20849;-63
2023/03/24 04:45:05;;;;;;;9.85;4.80;;;;;;;10.55;100.00;93060.09;5050023;28;20090;-65
2023/03/24 04:47:41;;;;;;;9.35;4.25;;;;;;;10.47;100.00;93064.25;5062748;28;20062;-65
2023/03/24 04:50:11;;;;;;;8.25;5.78;;;;;;;10.37;100.00;93072.34;5056380;28;20059;-63
2023/03/24 04:52:41;;;;;;;7.53;4.50;;;;;;;10.32;100.00;93083.88;5057007;28;20136;-63
2023/03/24 04:55:47;;;;;;;12.10;5.72;;;;;;;10.24;100.00;93092.69;5051541;28;20389;-64
2023/03/24 04:58:17;;;;;;;7.80;5.25;;;;;;;10.25;100.00;93095.00;5030085;28;20389;-64
2023/03/24 05:00:44;;;;;;;8.45;5.53;;;;;;;10.31;100.00;93098.78;5051231;28;20053;-63
2023/03/24 05:03:13;;;;;;;21.13;10.32;;;;;;;10.39;100.00;93102.09;5063071;28;20045;-63
2023/03/24 05:05:41;;;;;;;17.77;8.67;;;;;;;10.35;100.00;93109.66;5043490;28;20393;-63
2023/03/24 05:08:10;;;;;;;14.43;7.95;;;;;;;10.42;100.00;93108.66;5050866;28;20114;-63
2023/03/24 05:10:37;;;;;;;27.90;14.45;;;;;;;10.50;100.00;93110.81;5051515;28;20142;-62
2023/03/24 05:13:05;;;;;;;8.23;4.95;;;;;;;10.58;100.00;93112.13;5037531;28;20040;-63
2023/03/24 05:15:33;;;;;;;30.42;17.17;;;;;;;10.58;100.00;93114.09;5051196;28;20056;-64
2023/03/24 05:18:00;;;;;;;6.80;3.97;;;;;;;10.53;100.00;93117.38;5050438;28;20090;-64
2023/03/24 05:20:27;;;;;;;7.10;4.50;;;;;;;10.55;100.00;93113.00;5049837;28;20041;-63
2023/03/24 05:22:54;;;;;;;33.17;20.13;;;;;;;10.56;100.00;93108.28;5051181;28;20041;-63
2023/03/24 05:25:20;;;;;;;7.38;4.60;;;;;;;10.56;100.00;93108.28;5050678;28;20037;-63
2023/03/24 05:27:48;;;;;;;8.23;5.57;;;;;;;10.53;100.00;93106.41;5051025;28;20041;-62
2023/03/24 05:30:15;;;;;;;14.57;9.43;;;;;;;10.63;100.00;93112.81;5047609;28;20060;-64
2023/03/24 05:32:42;;;;;;;7.00;4.38;;;;;;;10.58;100.00;93106.66;5040826;28;20049;-66
2023/03/24 05:35:12;;;;;;;6.32;3.78;;;;;;;10.63;100.00;93088.13;5033582;28;20063;-62
2023/03/24 05:37:39;;;;;;;6.63;3.78;;;;;;;10.69;100.00;93084.38;5050370;28;20265;-64
2023/03/24 05:40:07;;;;;;;6.60;3.85;;;;;;;10.71;100.00;93086.69;5061889;28;20053;-63
2023/03/24 05:42:34;;;;;;;6.60;3.10;;;;;;;10.71;100.00;93092.19;5036431;28;20393;-63
2023/03/24 05:45:01;;;;;;;6.00;4.15;;;;;;;10.74;100.00;93099.53;5049694;28;20476;-64
2023/03/24 05:47:28;;;;;;;11.90;7.38;;;;;;;10.76;100.00;93097.88;5030945;28;20033;-63
2023/03/24 05:49:54;;;;;;;6.57;3.83;;;;;;;10.77;100.00;93104.94;5041619;28;20701;-63
2023/03/24 05:52:21;;;;;;;5.70;3.45;;;;;;;10.75;100.00;93098.34;5035407;28;20060;-63
2023/03/24 05:54:50;;;;;;;7.27;4.10;;;;;;;10.76;100.00;93100.63;5037135;28;20037;-66
2023/03/24 05:57:19;;;;;;;6.15;3.60;;;;;;;10.70;100.00;93107.88;5046689;28;20187;-66
2023/03/24 05:59:46;;;;;;;7.28;4.10;;;;;;;10.72;100.00;93110.19;5050541;28;20041;-64
2023/03/24 06:02:13;;;;;;;7.82;4.80;;;;;;;10.69;100.00;93114.56;5036194;28;20063;-65
2023/03/24 06:04:44;;;;;;;8.45;5.85;;;;;;;10.71;100.00;93103.94;5050395;28;20063;-68
2023/03/24 06:07:13;;;;;;;13.53;8.50;;;;;;;10.63;100.00;93102.59;5036353;28;20424;-63
2023/03/24 06:09:45;;;;;;;6.25;4.18;;;;;;;10.52;100.00;93102.91;5050093;28;20106;-62
2023/03/24 06:12:13;;;;;;;6.70;3.72;;;;;;;10.52;100.00;93102.13;5033070;28;20040;-63
2023/03/24 06:14:39;;;;;;;6.85;3.80;;;;;;;10.50;100.00;93104.53;5050134;28;20043;-63
2023/03/24 06:17:07;;;;;;;8.57;5.43;;;;;;;10.59;100.00;93104.69;5031302;28;20044;-62
2023/03/24 06:19:37;;;;;;;8.80;5.10;;;;;;;10.64;100.00;93106.88;5039639;28;20040;-62
2023/03/24 06:22:05;;;;;;;9.40;4.75;;;;;;;10.69;100.00;93100.09;5058893;28;20055;-63
2023/03/24 06:24:33;;;;;;;7.60;5.20;;;;;;;10.75;100.00;93095.59;5032407;28;20037;-64
2023/03/24 06:27:01;;;;;;;7.35;4.00;;;;;;;10.82;100.00;93106.34;5047361;28;20447;-64
2023/03/24 06:29:29;;;;;;;6.97;4.50;;;;;;;10.88;100.00;93101.84;5050465;28;20409;-65
2023/03/24 06:31:56;;;;;;;6.20;3.50;;;;;;;10.92;100.00;93101.75;5069744;28;20477;-63
2023/03/24 06:34:24;;;;;;;6.05;3.70;;;;;;;10.92;100.00;93110.00;5067556;28;20169;-65
2023/03/24 06:36:51;;;;;;;6.05;3.47;;;;;;;11.03;100.00;93107.72;5056925;28;20024;-64
2023/03/24 06:39:18;;;;;;;5.93;3.47;;;;;;;11.10;100.00;93101.97;5069453;28;20142;-64
2023/03/24 06:41:44;;;;;;;7.53;4.10;;;;;;;11.20;100.00;93105.63;5063675;28;20037;-63
2023/03/24 06:44:11;;;;;;;6.23;3.70;;;;;;;11.25;100.00;93104.28;5048886;28;20041;-63
2023/03/24 06:46:39;;;;;;;5.15;3.50;;;;;;;11.26;100.00;93103.09;5049194;28;20085;-64
2023/03/24 06:49:06;;;;;;;5.55;3.88;;;;;;;11.33;100.00;93105.63;5048830;28;20493;-63
2023/03/24 06:51:33;;;;;;;5.43;3.45;;;;;;;11.25;100.00;93107.03;5074040;28;20033;-64
2023/03/24 06:54:00;;;;;;;6.25;3.88;;;;;;;11.31;100.00;93111.56;5069033;28;20035;-64
2023/03/24 06:56:27;;;;;;;6.57;4.10;;;;;;;11.33;100.00;93113.88;5056084;28;20040;-65
2023/03/24 06:58:54;;;;;;;8.52;4.63;;;;;;;11.33;100.00;93116.63;5067978;28;20044;-63
2023/03/24 07:01:21;;;;;;;6.15;3.95;;;;;;;11.20;100.00;93120.13;5067244;28;20037;-63
2023/03/24 07:03:48;;;;;;;7.65;4.35;;;;;;;11.15;100.00;93119.91;5069424;28;20037;-64
2023/03/24 07:06:15;;;;;;;7.60;4.22;;;;;;;11.12;100.00;93131.75;5067918;28;20043;-63
2023/03/24 07:08:43;;;;;;;5.63;3.90;;;;;;;11.16;100.00;93124.19;5069258;28;20388;-66
2023/03/24 07:11:10;;;;;;;8.95;4.38;;;;;;;11.15;100.00;93134.41;5044235;28;20049;-63
2023/03/24 07:13:37;;;;;;;6.80;3.72;;;;;;;11.32;100.00;93139.78;5062416;28;20455;-63
2023/03/24 07:16:04;;;;;;;6.00;4.00;;;;;;;11.26;100.00;93127.81;5055952;28;20057;-64
2023/03/24 07:18:31;;;;;;;8.20;5.00;;;;;;;11.23;100.00;93134.19;5056350;28;20043;-63
2023/03/24 07:20:58;;;;;;;7.63;4.10;;;;;;;11.25;100.00;93135.28;5054800;28;20066;-61
2023/03/24 07:23:26;;;;;;;8.35;4.43;;;;;;;11.42;100.00;93129.69;5068948;28;20074;-64
2023/03/24 07:25:53;;;;;;;6.53;3.70;;;;;;;11.33;100.00;93144.09;5067729;28;20036;-65
2023/03/24 07:28:20;;;;;;;5.93;3.78;;;;;;;11.40;100.00;93152.84;5068663;28;20373;-63
2023/03/24 07:30:47;;;;;;;6.20;3.63;;;;;;;11.30;100.00;93162.19;5064031;28;20047;-64
2023/03/24 07:33:14;;;;;;;5.97;3.60;;;;;;;11.35;100.00;93158.91;5059442;28;20051;-63
2023/03/24 07:35:41;;;;;;;4.85;3.20;;;;;;;11.43;100.00;93164.97;5051086;28;20037;-64
2023/03/24 07:38:09;;;;;;;5.28;3.42;;;;;;;11.40;100.00;93168.59;5059714;28;20090;-64
2023/03/24 07:40:36;;;;;;;6.53;3.78;;;;;;;11.46;100.00;93183.31;5075093;28;20047;-64
2023/03/24 07:43:04;;;;;;;5.47;3.35;;;;;;;11.30;100.00;93177.91;5054908;28;20050;-66
2023/03/24 07:45:32;;;;;;;7.43;3.50;;;;;;;11.30;100.00;93189.66;5068910;28;20041;-66
2023/03/24 07:48:02;;;;;;;5.43;3.40;;;;;;;11.36;100.00;93193.41;5068275;28;20246;-65
2023/03/24 07:50:30;;;;;;;6.40;3.88;;;;;;;11.30;100.00;93197.91;5068363;28;20040;-64
2023/03/24 07:52:57;;;;;;;4.97;3.30;;;;;;;11.22;100.00;93201.31;5069315;28;20041;-65
2023/03/24 07:55:26;;;;;;;7.43;3.83;;;;;;;11.23;100.00;93209.13;5067929;28;20704;-64
2023/03/24 07:57:53;;;;;;;5.30;3.47;;;;;;;11.09;100.00;93212.28;5055074;28;20036;-64
2023/03/24 08:00:20;;;;;;;5.95;3.42;;;;;;;11.03;100.00;93211.25;5068603;28;20032;-64
2023/03/24 08:02:50;;;;;;;5.47;3.35;;;;;;;10.91;100.00;93207.28;5068922;28;20055;-63
2023/03/24 08:05:19;;;;;;;5.85;3.08;;;;;;;10.94;100.00;93226.38;5050755;28;20048;-63
2023/03/24 08:07:54;;;;;;;7.30;3.55;;;;;;;10.99;100.00;93211.38;5055464;28;20067;-63
2023/03/24 08:10:24;;;;;;;4.10;2.43;;;;;;;11.01;100.00;93225.44;5068389;28;20044;-64
2023/03/24 08:12:51;;;;;;;5.63;2.95;;;;;;;11.02;100.00;93226.97;5058571;28;20040;-62
2023/03/24 08:15:19;;;;;;;4.43;3.08;;;;;;;10.94;100.00;93236.59;5048978;28;20055;-62
2023/03/24 08:17:48;;;;;;;6.18;2.30;;;;;;;10.81;100.00;93239.31;5068537;28;20060;-62
2023/03/24 08:20:15;;;;;;;5.72;2.42;;;;;;;10.87;100.00;93236.81;5067939;28;20043;-62
2023/03/24 08:22:43;;;;;;;4.10;2.60;;;;;;;10.94;100.00;93237.38;5060830;28;20041;-63
2023/03/24 08:25:11;;;;;;;5.00;2.30;;;;;;;10.89;100.00;93251.63;5047573;28;20045;-64
2023/03/24 08:27:39;;;;;;;4.00;2.45;;;;;;;10.85;100.00;93253.72;5057204;28;20390;-63
2023/03/24 08:30:09;;;;;;;5.50;2.45;;;;;;;10.76;100.00;93261.78;5054195;28;20067;-63
2023/03/24 08:32:36;;;;;;;3.67;2.17;;;;;;;10.57;100.00;93250.50;5055023;28;20508;-64
2023/03/24 08:35:04;;;;;;;4.93;2.87;;;;;;;10.67;100.00;93265.16;5069385;28;20360;-64
2023/03/24 08:37:30;;;;;;;3.80;2.30;;;;;;;10.59;100.00;93259.09;5070558;28;20466;-64
2023/03/24 08:40:04;;;;;;;3.88;2.55;;;;;;;10.62;100.00;93262.94;5083606;28;20045;-63
2023/03/24 08:42:31;;;;;;;4.50;2.38;;;;;;;10.43;100.00;93267.34;5056106;28;20842;-63
2023/03/24 08:44:57;;;;;;;4.15;2.90;;;;;;;10.34;100.00;93267.16;5051846;28;20390;-63
2023/03/24 08:47:24;;;;;;;5.43;2.40;;;;;;;10.49;100.00;93259.38;5059731;28;21560;-63
2023/03/24 08:49:56;;;;;;;4.10;2.60;;;;;;;10.54;100.00;93245.91;5057824;28;20477;-63
2023/03/24 08:52:23;;;;;;;4.63;2.90;;;;;;;10.44;100.00;93257.13;5065293;28;20135;-64
2023/03/24 08:54:51;;;;;;;4.50;2.60;;;;;;;10.35;100.00;93264.00;5064690;28;20563;-64
2023/03/24 08:57:18;;;;;;;5.05;2.60;;;;;;;10.42;100.00;93260.31;5071143;28;20086;-62
2023/03/24 08:59:45;;;;;;;5.53;2.57;;;;;;;10.46;100.00;93254.72;5071660;28;20040;-63
2023/03/24 09:02:13;;;;;;;4.78;2.40;;;;;;;10.54;100.00;93234.94;5065462;28;20040;-66
2023/03/24 09:04:41;;;;;;;4.47;2.90;;;;;;;10.43;100.00;93234.44;5064218;28;20043;-63
2023/03/24 09:07:09;;;;;;;4.88;2.90;;;;;;;10.47;100.00;93229.63;5071097;28;20404;-64
2023/03/24 09:09:35;;;;;;;5.53;3.60;;;;;;;10.61;100.00;93231.22;5071492;28;20097;-62
2023/03/24 09:12:02;;;;;;;5.60;3.10;;;;;;;10.75;100.00;93224.59;5070746;28;20036;-64
2023/03/24 09:14:29;;;;;;;5.78;2.97;;;;;;;10.64;100.00;93197.41;5052856;28;20101;-63
2023/03/24 09:16:56;;;;;;;6.57;3.45;;;;;;;10.72;100.00;93192.50;5051298;28;20051;-66
2023/03/24 09:19:22;;;;;;;5.85;3.28;;;;;;;10.82;100.00;93207.91;5065538;28;20028;-64
2023/03/24 09:21:49;;;;;;;5.05;3.05;;;;;;;10.89;100.00;93226.94;5051494;28;20483;-63
2023/03/24 09:24:16;;;;;;;5.10;3.23;;;;;;;10.89;100.00;93240.66;5068344;28;20036;-63
2023/03/24 09:26:43;;;;;;;5.13;3.35;;;;;;;11.14;100.00;93234.47;5060252;28;20678;-64
2023/03/24 09:29:09;;;;;;;5.07;2.80;;;;;;;11.46;100.00;93230.00;5067141;28;20052;-63
2023/03/24 09:31:36;;;;;;;4.80;2.78;;;;;;;11.91;100.00;93220.84;5071267;28;20032;-64
2023/03/24 09:34:03;;;;;;;4.57;2.75;;;;;;;12.10;100.00;93226.53;5057057;28;20029;-65
2023/03/24 09:36:31;;;;;;;3.73;2.30;;;;;;;11.82;100.00;93234.44;5071281;28;20037;-63
2023/03/24 09:38:58;;;;;;;4.50;2.30;;;;;;;11.99;100.00;93241.41;5075834;28;20036;-61
2023/03/24 09:41:28;;;;;;;3.75;2.42;;;;;;;12.05;100.00;93243.56;5063167;28;20048;-64
2023/03/24 09:44:21;;;;;;;4.45;2.30;;;;;;;11.99;100.00;93235.91;5049515;28;20043;-64
2023/03/24 09:46:53;;;;;;;3.40;2.08;;;;;;;11.93;100.00;93217.63;5063111;28;20044;-65
2023/03/24 09:49:27;;;;;;;3.00;1.80;;;;;;;12.14;100.00;93219.69;5063005;28;20041;-64
2023/03/24 09:52:23;;;;;;;3.47;1.90;;;;;;;11.84;100.00;93228.50;5079730;28;20392;-63
2023/03/24 09:54:54;;;;;;;3.17;2.00;;;;;;;11.86;100.00;93232.34;5065172;28;21790;-63
2023/03/24 09:57:27;;;;;;;3.20;1.98;;;;;;;11.75;100.00;93212.66;5070145;28;20534;-63
2023/03/24 09:59:54;;;;;;;3.40;2.00;;;;;;;11.59;100.00;93205.31;5051372;28;20090;-65
2023/03/24 10:02:22;;;;;;;5.13;2.10;;;;;;;11.60;100.00;93202.09;5054125;28;20043;-65
2023/03/24 10:04:49;;;;;;;3.10;2.03;;;;;;;11.57;100.00;93224.22;5070286;28;20388;-64
2023/03/24 10:07:46;;;;;;;3.08;2.00;;;;;;;11.54;100.00;93230.56;5069716;28;20052;-63
2023/03/24 10:10:39;;;;;;;3.40;2.00;;;;;;;11.85;100.00;93233.56;5069687;28;20048;-63
2023/03/24 10:13:12;;;;;;;2.88;1.50;;;;;;;11.70;100.00;93241.47;5069701;28;20044;-63
2023/03/24 10:15:54;;;;;;;3.07;2.00;;;;;;;11.78;100.00;93244.78;5055863;28;20037;-63
2023/03/24 10:18:59;;;;;;;3.28;2.10;;;;;;;11.55;100.00;93246.63;5057373;28;20044;-63
2023/03/24 10:21:26;;;;;;;4.07;2.05;;;;;;;11.66;100.00;93256.53;5041803;28;20629;-66
2023/03/24 10:24:12;;;;;;;3.33;1.85;;;;;;;11.51;100.00;93253.41;5068656;28;20040;-65
2023/03/24 10:26:54;;;;;;;3.53;2.30;;;;;;;11.54;100.00;93247.06;5067705;28;20039;-65
2023/03/24 10:29:21;;;;;;;3.70;1.67;;;;;;;11.38;100.00;93243.19;5056437;28;20382;-64
2023/03/24 10:31:57;;;;;;;3.40;1.90;;;;;;;11.43;100.00;93244.66;5069679;28;20029;-63
2023/03/24 10:34:29;;;;;;;3.33;2.00;;;;;;;11.28;100.00;93249.75;5055686;28;21568;-64
2023/03/24 10:36:58;;;;;;;3.08;2.17;;;;;;;11.27;100.00;93252.94;5055665;28;20137;-63
2023/03/24 10:39:25;;;;;;;3.08;2.08;;;;;;;11.14;100.00;93269.41;5069338;28;21639;-64
2023/03/24 10:42:17;;;;;;;3.20;1.70;;;;;;;11.18;100.00;93278.31;5069478;28;20042;-64
2023/03/24 10:44:47;;;;;;;2.70;1.70;;;;;;;11.08;100.00;93293.09;5069725;28;20462;-62
2023/03/24 10:47:17;;;;;;;3.15;1.92;;;;;;;11.03;100.00;93297.16;5056823;28;20052;-64
2023/03/24 10:49:56;;;;;;;3.35;1.90;;;;;;;11.14;100.00;93294.88;5062568;28;20045;-63
2023/03/24 10:52:23;;;;;;;2.88;1.70;;;;;;;11.14;100.00;93303.13;5064923;28;20045;-63
2023/03/24 10:55:02;;;;;;;3.10;1.60;;;;;;;11.15;100.00;93299.19;5069217;28;20403;-65
2023/03/24 10:57:29;;;;;;;3.25;1.70;;;;;;;11.13;100.00;93298.06;5062941;28;20067;-62
2023/03/24 10:59:58;;;;;;;3.08;1.70;;;;;;;10.87;100.00;93316.41;5067800;28;20529;-63
2023/03/24 11:02:30;;;;;;;2.88;1.80;;;;;;;10.87;100.00;93310.94;5068302;28;20383;-65
2023/03/24 11:05:13;;;;;;;3.35;1.95;;;;;;;10.78;100.00;93323.28;5058977;28;20045;-63
2023/03/24 11:07:46;;;;;;;3.30;1.77;;;;;;;10.56;100.00;93283.88;5098830;28;20040;-66
2023/03/24 11:10:16;;;;;;;5.00;1.83;;;;;;;10.35;100.00;93274.97;5067443;28;20052;-63
2023/03/24 11:13:01;;;;;;;3.20;1.60;;;;;;;10.27;100.00;93248.13;5069330;28;20037;-62
2023/03/24 11:15:29;;;;;;;2.78;1.65;;;;;;;10.27;100.00;93246.16;5057171;28;20629;-65
2023/03/24 11:18:07;;;;;;;3.10;1.70;;;;;;;10.45;100.00;93242.22;5065900;28;20042;-64
2023/03/24 11:20:37;;;;;;;3.00;1.73;;;;;;;10.53;100.00;93240.84;5068233;28;21581;-62
2023/03/24 11:23:09;;;;;;;3.15;1.73;;;;;;;10.46;100.00;93216.31;5054915;28;20052;-62
2023/03/24 11:25:40;;;;;;;3.13;1.80;;;;;;;10.56;100.00;93229.78;5056184;28;20068;-63
2023/03/24 11:28:14;;;;;;;4.32;1.70;;;;;;;10.85;100.00;93244.72;5063582;28;20070;-63
2023/03/24 11:30:46;;;;;;;3.75;2.08;;;;;;;10.85;100.00;93245.47;5058478;28;20090;-63
2023/03/24 11:33:32;;;;;;;4.07;2.03;;;;;;;11.02;100.00;93248.16;5064887;28;20439;-63
2023/03/24 11:36:25;;;;;;;8.35;3.83;;;;;;;11.20;100.00;93251.19;5061851;28;20406;-64
2023/03/24 11:39:05;;;;;;;15.85;6.80;;;;;;;11.46;100.00;93256.72;5061557;28;20043;-63
2023/03/24 11:41:33;;;;;;;11.95;5.82;;;;;;;11.40;100.00;93281.22;5054626;28;20334;-63
2023/03/24 11:44:23;;;;;;;2.95;1.70;;;;;;;11.43;100.00;93260.34;5059335;28;20094;-62
2023/03/24 11:46:57;;;;;;;2.83;1.70;;;;;;;11.43;100.00;93268.56;5067841;28;20657;-65
2023/03/24 11:49:40;;;;;;;2.42;1.42;;;;;;;11.40;100.00;93251.00;5054572;28;20916;-65